createdAt,value
2022-08-28T00:01:01.305Z,94.92
2022-08-28T00:04:04.539Z,94.85
2022-08-28T00:07:07.189Z,94.13
2022-08-28T00:10:14.639Z,94.23
2022-08-28T00:13:20.484Z,94.34
2022-08-28T00:16:24.018Z,94.21
2022-08-28T00:19:29.371Z,94.43
2022-08-28T00:22:32.016Z,94.74
2022-08-28T00:25:37.257Z,94.74
2022-08-28T00:28:38.860Z,95.16
2022-08-28T00:31:41.532Z,94.96
2022-08-28T00:34:44.197Z,94.73
2022-08-28T00:37:48.152Z,94.37
2022-08-28T00:40:56.551Z,94.94
2022-08-28T00:44:11.091Z,94.98
2022-08-28T00:47:14.069Z,94.84
2022-08-28T00:50:19.363Z,94.51
2022-08-28T00:53:23.446Z,93.80
2022-08-28T00:56:32.956Z,95.33
2022-08-28T00:59:36.344Z,94.86
2022-08-28T01:02:39.144Z,96.21
2022-08-28T01:05:46.684Z,95.85
2022-08-28T01:08:52.088Z,95.60
2022-08-28T01:12:01.896Z,96.87
2022-08-28T01:15:11.774Z,96.78
2022-08-28T01:18:17.565Z,95.99
2022-08-28T01:21:26.564Z,95.53
2022-08-28T01:24:32.103Z,96.81
2022-08-28T01:27:34.990Z,96.39
2022-08-28T01:30:37.735Z,95.34
2022-08-28T01:33:42.399Z,95.19
2022-08-28T01:36:46.113Z,95.58
2022-08-28T01:39:50.093Z,96.76
2022-08-28T01:42:52.751Z,97.22
2022-08-28T01:46:00.063Z,96.06
2022-08-28T01:49:02.966Z,96.62
2022-08-28T01:52:05.786Z,96.13
2022-08-28T01:55:11.376Z,95.17
2022-08-28T01:58:14.674Z,94.86
2022-08-28T02:01:20.260Z,94.67
2022-08-28T02:04:31.724Z,94.30
2022-08-28T02:07:35.193Z,95.89
2022-08-28T02:10:41.181Z,95.26
2022-08-28T02:13:44.168Z,94.76
2022-08-28T02:16:47.178Z,95.06
2022-08-28T02:19:50.497Z,96.08
2022-08-28T02:22:53.134Z,96.71
2022-08-28T02:25:57.055Z,96.30
2022-08-28T02:28:59.684Z,95.25
2022-08-28T02:32:02.375Z,95.77
2022-08-28T02:35:06.579Z,95.62
2022-08-28T02:38:14.826Z,95.23
2022-08-28T02:41:18.905Z,94.79
2022-08-28T02:44:21.509Z,94.73
2022-08-28T02:47:24.087Z,95.60
2022-08-28T02:50:26.655Z,95.44
2022-08-28T02:53:29.820Z,94.59
2022-08-28T02:56:34.309Z,94.73
2022-08-28T02:59:38.295Z,94.70
2022-08-28T03:02:42.246Z,96.67
2022-08-28T03:05:44.865Z,97.02
2022-08-28T03:08:47.508Z,96.10
2022-08-28T03:11:53.886Z,95.39
2022-08-28T03:14:56.874Z,94.63
2022-08-28T03:17:59.590Z,94.32
2022-08-28T03:21:02.770Z,94.75
2022-08-28T03:24:05.671Z,94.77
2022-08-28T03:27:10.358Z,95.14
2022-08-28T03:30:13.679Z,95.07
2022-08-28T03:33:16.430Z,96.41
2022-08-28T03:36:24.655Z,94.81
2022-08-28T03:39:27.259Z,94.95
2022-08-28T03:42:31.538Z,95.29
2022-08-28T03:45:35.214Z,94.58
2022-08-28T03:48:39.090Z,94.77
2022-08-28T03:51:47.507Z,93.91
2022-08-28T03:54:50.430Z,94.05
2022-08-28T03:57:54.958Z,94.39
2022-08-28T04:00:57.603Z,95.06
2022-08-28T04:04:00.365Z,95.94
2022-08-28T04:07:02.944Z,95.79
2022-08-28T04:10:06.445Z,96.25
2022-08-28T04:13:10.805Z,95.43
2022-08-28T04:16:18.981Z,95.39
2022-08-28T04:19:22.524Z,95.71
2022-08-28T04:22:25.153Z,94.49
2022-08-28T04:25:28.310Z,95.14
2022-08-28T04:28:32.869Z,95.57
2022-08-28T04:31:36.037Z,94.89
2022-08-28T04:34:39.143Z,94.84
2022-08-28T04:37:43.614Z,95.04
2022-08-28T04:40:46.212Z,95.32
2022-08-28T04:43:51.846Z,95.49
2022-08-28T04:46:54.415Z,95.35
2022-08-28T04:49:58.865Z,94.69
2022-08-28T04:53:01.513Z,95.20
2022-08-28T04:56:06.495Z,95.43
2022-08-28T04:59:11.600Z,96.03
2022-08-28T05:02:14.229Z,95.37
2022-08-28T05:05:17.072Z,95.49
2022-08-28T05:08:23.998Z,95.58
2022-08-28T05:11:33.798Z,94.89
2022-08-28T05:14:39.836Z,95.59
2022-08-28T05:17:42.473Z,95.21
2022-08-28T05:20:46.482Z,94.83
2022-08-28T05:23:49.831Z,94.60
2022-08-28T05:26:52.572Z,95.87
2022-08-28T05:30:01.606Z,95.82
2022-08-28T05:33:05.112Z,95.79
2022-08-28T05:36:08.796Z,95.65
2022-08-28T05:39:12.664Z,95.57
2022-08-28T05:42:15.474Z,96.14
2022-08-28T05:45:20.946Z,95.63
2022-08-28T05:48:23.498Z,95.65
2022-08-28T05:51:27.601Z,95.56
2022-08-28T05:54:30.268Z,95.00
2022-08-28T05:57:32.878Z,95.44
2022-08-28T06:00:36.835Z,95.77
2022-08-28T06:03:40.639Z,94.77
2022-08-28T06:06:44.033Z,94.67
2022-08-28T06:09:46.658Z,94.84
2022-08-28T06:12:49.337Z,94.68
2022-08-28T06:15:53.488Z,94.83
2022-08-28T06:18:57.622Z,95.57
2022-08-28T06:22:01.869Z,95.09
2022-08-28T06:25:14.172Z,93.56
2022-08-28T06:28:19.244Z,93.61
2022-08-28T06:31:26.514Z,93.30
2022-08-28T06:34:30.594Z,92.67
2022-08-28T06:37:33.201Z,91.35
2022-08-28T06:40:40.051Z,90.85
2022-08-28T06:43:43.041Z,92.37
2022-08-28T06:46:48.506Z,88.89
2022-08-28T06:49:51.362Z,87.70
2022-08-28T06:52:53.917Z,88.56
2022-08-28T06:56:01.704Z,86.98
2022-08-28T06:59:05.038Z,85.82
2022-08-28T07:02:09.366Z,85.98
2022-08-28T07:05:12.139Z,84.46
2022-08-28T07:08:14.794Z,84.31
2022-08-28T07:11:21.922Z,83.09
2022-08-28T07:14:28.830Z,81.42
2022-08-28T07:17:32.801Z,80.47
2022-08-28T07:20:35.417Z,79.63
2022-08-28T07:23:40.065Z,78.83
2022-08-28T07:26:44.442Z,77.69
2022-08-28T07:29:47.054Z,77.94
2022-08-28T07:32:51.003Z,77.00
2022-08-28T07:35:53.682Z,74.87
2022-08-28T07:38:56.651Z,74.34
2022-08-28T07:41:59.271Z,75.15
2022-08-28T07:45:01.066Z,74.15
2022-08-28T07:48:11.457Z,73.60
2022-08-28T07:51:14.296Z,72.59
2022-08-28T07:54:18.226Z,70.64
2022-08-28T07:57:21.478Z,70.14
2022-08-28T08:00:25.583Z,68.79
2022-08-28T08:03:30.831Z,67.86
2022-08-28T08:06:34.450Z,66.85
2022-08-28T08:09:38.778Z,68.47
2022-08-28T08:12:42.683Z,66.47
2022-08-28T08:15:45.548Z,67.16
2022-08-28T08:18:50.637Z,65.01
2022-08-28T08:21:55.250Z,63.59
2022-08-28T08:24:57.976Z,64.12
2022-08-28T08:28:00.657Z,63.99
2022-08-28T08:31:08.418Z,63.60
2022-08-28T08:34:12.416Z,62.91
2022-08-28T08:37:15.118Z,62.98
2022-08-28T08:40:20.047Z,63.65
2022-08-28T08:43:23.897Z,61.84
2022-08-28T08:46:34.630Z,60.91
2022-08-28T08:49:44.677Z,61.06
2022-08-28T08:53:03.230Z,60.47
2022-08-28T08:56:06.805Z,61.92
2022-08-28T08:59:13.549Z,60.91
2022-08-28T09:02:22.343Z,60.69
2022-08-28T09:05:48.882Z,59.58
2022-08-28T09:08:57.966Z,59.58
2022-08-28T09:12:03.180Z,58.87
2022-08-28T09:15:14.135Z,57.28
2022-08-28T09:18:22.732Z,57.13
2022-08-28T09:21:29.616Z,55.89
2022-08-28T09:24:35.401Z,55.30
2022-08-28T09:27:46.828Z,56.17
2022-08-28T09:30:56.996Z,55.02
2022-08-28T09:34:18.789Z,53.18
2022-08-28T09:37:27.512Z,52.04
2022-08-28T09:40:51.771Z,50.39
2022-08-28T09:43:53.461Z,51.43
2022-08-28T09:46:56.099Z,52.19
2022-08-28T09:50:19.074Z,52.85
2022-08-28T09:53:23.481Z,53.15
2022-08-28T09:56:31.991Z,54.63
2022-08-28T09:59:34.669Z,53.47
2022-08-28T10:02:44.588Z,55.36
2022-08-28T10:05:55.971Z,53.76
2022-08-28T10:09:17.030Z,52.96
2022-08-28T10:12:34.798Z,48.97
2022-08-28T10:15:54.255Z,49.92
2022-08-28T10:19:06.128Z,50.94
2022-08-28T10:22:25.542Z,51.82
2022-08-28T10:25:40.092Z,51.02
2022-08-28T10:28:52.189Z,51.01
2022-08-28T10:32:11.187Z,51.86
2022-08-28T10:35:19.234Z,52.53
2022-08-28T10:38:30.252Z,53.35
2022-08-28T10:41:42.732Z,52.87
2022-08-28T10:44:50.839Z,53.04
2022-08-28T10:47:58.829Z,51.25
2022-08-28T10:51:05.934Z,50.81
2022-08-28T10:54:19.508Z,48.14
2022-08-28T10:57:37.303Z,49.02
2022-08-28T11:00:44.081Z,48.59
2022-08-28T11:03:50.315Z,49.34
2022-08-28T11:06:57.030Z,49.11
2022-08-28T11:10:20.122Z,48.87
2022-08-28T11:13:45.834Z,50.51
2022-08-28T11:16:50.081Z,53.14
2022-08-28T11:20:14.177Z,52.32
2022-08-28T11:23:23.195Z,53.27
2022-08-28T11:26:34.854Z,53.47
2022-08-28T11:30:02.056Z,54.49
2022-08-28T11:33:39.011Z,54.61
2022-08-28T11:37:00.992Z,55.86
2022-08-28T11:40:17.572Z,55.24
2022-08-28T11:43:37.358Z,53.33
2022-08-28T11:46:43.650Z,54.13
2022-08-28T11:49:46.746Z,52.87
2022-08-28T11:53:17.820Z,49.46
2022-08-28T11:56:36.853Z,45.37
2022-08-28T12:00:03.743Z,46.74
2022-08-28T12:03:13.461Z,46.96
2022-08-28T12:06:16.162Z,47.81
2022-08-28T12:09:41.422Z,49.27
2022-08-28T12:12:53.826Z,49.28
2022-08-28T12:16:05.504Z,46.92
2022-08-28T12:19:11.119Z,43.15
2022-08-28T12:22:16.426Z,43.84
2022-08-28T12:25:28.398Z,43.33
2022-08-28T12:28:33.163Z,42.91
2022-08-28T12:32:15.075Z,44.93
2022-08-28T12:35:21.516Z,46.87
2022-08-28T12:38:24.509Z,47.08
2022-08-28T12:41:28.298Z,45.40
2022-08-28T12:44:33.349Z,44.98
2022-08-28T12:47:37.014Z,46.66
2022-08-28T12:50:41.122Z,43.95
2022-08-28T12:53:46.176Z,43.97
2022-08-28T12:56:48.810Z,44.97
2022-08-28T12:59:53.061Z,45.31
2022-08-28T13:02:57.783Z,46.85
2022-08-28T13:06:05.624Z,48.09
2022-08-28T13:09:16.551Z,48.15
2022-08-28T13:12:22.243Z,47.28
2022-08-28T13:15:55.127Z,44.00
2022-08-28T13:19:13.553Z,44.27
2022-08-28T13:22:39.632Z,46.50
2022-08-28T13:25:42.291Z,47.81
2022-08-28T13:28:45.144Z,49.23
2022-08-28T13:31:57.164Z,49.99
2022-08-28T13:35:34.798Z,50.10
2022-08-28T13:38:38.893Z,50.73
2022-08-28T13:41:42.498Z,50.31
2022-08-28T13:44:50.401Z,48.58
2022-08-28T13:47:53.014Z,48.45
2022-08-28T13:51:00.121Z,48.73
2022-08-28T13:54:04.190Z,48.22
2022-08-28T13:57:09.198Z,48.86
2022-08-28T14:00:14.420Z,49.03
2022-08-28T14:03:35.322Z,49.86
2022-08-28T14:06:37.917Z,51.44
2022-08-28T14:09:42.733Z,51.90
2022-08-28T14:12:47.640Z,52.11
2022-08-28T14:15:50.275Z,51.78
2022-08-28T14:18:53.588Z,52.58
2022-08-28T14:21:57.368Z,51.70
2022-08-28T14:25:01.399Z,52.38
2022-08-28T14:28:04.598Z,52.57
2022-08-28T14:31:12.262Z,50.54
2022-08-28T14:34:21.304Z,49.59
2022-08-28T14:37:23.918Z,49.99
2022-08-28T14:40:27.921Z,49.46
2022-08-28T14:43:31.554Z,49.30
2022-08-28T14:46:36.598Z,50.18
2022-08-28T14:49:39.695Z,49.40
2022-08-28T14:52:42.849Z,49.71
2022-08-28T14:55:48.685Z,49.66
2022-08-28T14:58:51.449Z,49.69
2022-08-28T15:01:58.009Z,51.56
2022-08-28T15:05:01.011Z,50.90
2022-08-28T15:08:04.230Z,50.58
2022-08-28T15:11:08.558Z,51.55
2022-08-28T15:14:11.689Z,51.04
2022-08-28T15:17:14.642Z,51.09
2022-08-28T15:20:17.502Z,51.43
2022-08-28T15:23:20.195Z,51.11
2022-08-28T15:26:25.711Z,50.52
2022-08-28T15:29:29.847Z,50.53
2022-08-28T15:32:32.592Z,50.95
2022-08-28T15:35:37.030Z,51.01
2022-08-28T15:38:53.585Z,50.42
2022-08-28T15:42:01.314Z,51.13
2022-08-28T15:45:04.189Z,51.74
2022-08-28T15:48:06.942Z,53.34
2022-08-28T15:51:09.532Z,54.46
2022-08-28T15:54:13.269Z,55.53
2022-08-28T15:57:17.400Z,56.88
2022-08-28T16:00:20.114Z,57.20
2022-08-28T16:03:22.712Z,57.39
2022-08-28T16:06:26.763Z,58.23
2022-08-28T16:09:29.314Z,58.27
2022-08-28T16:12:33.313Z,58.54
2022-08-28T16:15:36.158Z,59.14
2022-08-28T16:18:39.019Z,58.71
2022-08-28T16:21:42.573Z,58.13
2022-08-28T16:24:45.810Z,58.89
2022-08-28T16:27:49.772Z,58.45
2022-08-28T16:30:52.840Z,58.76
2022-08-28T16:33:56.848Z,59.01
2022-08-28T16:36:59.879Z,59.00
2022-08-28T16:40:02.601Z,58.24
2022-08-28T16:43:06.560Z,58.43
2022-08-28T16:46:14.277Z,57.93
2022-08-28T16:49:16.952Z,58.35
2022-08-28T16:52:20.011Z,57.74
2022-08-28T16:55:22.785Z,57.29
2022-08-28T16:58:26.806Z,57.95
2022-08-28T17:01:29.562Z,57.54
2022-08-28T17:04:33.078Z,57.60
2022-08-28T17:07:35.972Z,56.22
2022-08-28T17:10:38.730Z,57.26
2022-08-28T17:13:42.730Z,58.42
2022-08-28T17:16:45.907Z,58.80
2022-08-28T17:19:48.512Z,60.35
2022-08-28T17:22:50.161Z,61.61
2022-08-28T17:25:52.742Z,62.75
2022-08-28T17:28:56.689Z,64.48
2022-08-28T17:31:59.354Z,65.28
2022-08-28T17:35:02.429Z,65.69
2022-08-28T17:38:05.068Z,66.83
2022-08-28T17:41:07.667Z,66.85
2022-08-28T17:44:12.085Z,67.10
2022-08-28T17:47:14.690Z,67.74
2022-08-28T17:50:17.464Z,67.75
2022-08-28T17:53:23.498Z,68.42
2022-08-28T17:56:35.757Z,69.04
2022-08-28T17:59:40.149Z,69.22
2022-08-28T18:02:43.013Z,70.04
2022-08-28T18:05:46.202Z,69.93
2022-08-28T18:08:50.933Z,70.89
2022-08-28T18:11:53.906Z,71.74
2022-08-28T18:14:57.994Z,71.27
2022-08-28T18:18:00.722Z,70.90
2022-08-28T18:21:03.329Z,71.65
2022-08-28T18:24:06.749Z,71.92
2022-08-28T18:27:09.356Z,72.35
2022-08-28T18:30:13.960Z,72.49
2022-08-28T18:33:18.609Z,73.02
2022-08-28T18:36:22.992Z,73.81
2022-08-28T18:39:29.778Z,73.20
2022-08-28T18:42:32.674Z,72.49
2022-08-28T18:45:36.775Z,73.02
2022-08-28T18:48:39.380Z,73.58
2022-08-28T18:51:42.940Z,74.17
2022-08-28T18:54:45.694Z,74.50
2022-08-28T18:57:49.512Z,75.79
2022-08-28T19:00:55.910Z,74.29
2022-08-28T19:03:58.523Z,74.75
2022-08-28T19:07:01.122Z,74.42
2022-08-28T19:10:05.560Z,75.02
2022-08-28T19:13:08.699Z,76.57
2022-08-28T19:16:16.989Z,75.06
2022-08-28T19:19:19.686Z,74.88
2022-08-28T19:22:23.324Z,76.21
2022-08-28T19:25:29.254Z,75.46
2022-08-28T19:28:32.011Z,76.79
2022-08-28T19:31:35.949Z,76.69
2022-08-28T19:34:38.604Z,76.36
2022-08-28T19:37:42.748Z,76.16
2022-08-28T19:40:45.809Z,76.51
2022-08-28T19:43:48.504Z,77.04
2022-08-28T19:46:52.429Z,78.14
2022-08-28T19:49:55.554Z,78.26
2022-08-28T19:52:59.987Z,78.87
2022-08-28T19:56:02.741Z,78.50
2022-08-28T19:59:07.523Z,78.15
2022-08-28T20:02:11.531Z,78.90
2022-08-28T20:05:14.487Z,79.05
2022-08-28T20:08:17.841Z,79.61
2022-08-28T20:11:24.894Z,80.20
2022-08-28T20:14:27.803Z,80.39
2022-08-28T20:17:31.805Z,80.95
2022-08-28T20:20:34.462Z,81.64
2022-08-28T20:23:37.045Z,82.70
2022-08-28T20:26:39.776Z,83.01
2022-08-28T20:29:42.486Z,84.54
2022-08-28T20:32:46.462Z,85.38
2022-08-28T20:35:49.094Z,86.08
2022-08-28T20:38:51.718Z,87.11
2022-08-28T20:41:54.344Z,87.06
2022-08-28T20:44:57.581Z,86.57
2022-08-28T20:48:01.527Z,86.85
2022-08-28T20:51:04.483Z,87.93
2022-08-28T20:54:07.130Z,87.86
2022-08-28T20:57:12.959Z,87.08
2022-08-28T21:00:15.856Z,86.76
2022-08-28T21:03:20.110Z,87.33
2022-08-28T21:06:29.759Z,88.17
2022-08-28T21:09:33.409Z,87.39
2022-08-28T21:12:54.967Z,87.47
2022-08-28T21:15:57.554Z,87.56
2022-08-28T21:19:16.966Z,88.32
2022-08-28T21:22:20.019Z,87.61
2022-08-28T21:25:25.032Z,89.01
2022-08-28T21:28:27.732Z,87.92
2022-08-28T21:31:30.348Z,88.67
2022-08-28T21:34:34.277Z,89.51
2022-08-28T21:37:36.881Z,89.17
2022-08-28T21:40:40.943Z,88.69
2022-08-28T21:43:45.054Z,88.77
2022-08-28T21:46:47.643Z,89.48
2022-08-28T21:49:52.509Z,88.83
2022-08-28T21:52:55.115Z,88.71
2022-08-28T21:55:58.089Z,88.39
2022-08-28T21:59:01.101Z,88.32
2022-08-28T22:02:04.362Z,88.16
2022-08-28T22:05:08.967Z,88.64
2022-08-28T22:08:11.872Z,89.22
2022-08-28T22:11:15.632Z,90.01
2022-08-28T22:14:19.577Z,90.34
2022-08-28T22:17:22.545Z,90.97
2022-08-28T22:20:26.679Z,90.70
2022-08-28T22:23:34.868Z,91.54
2022-08-28T22:26:37.822Z,92.01
2022-08-28T22:29:40.544Z,92.13
2022-08-28T22:32:43.162Z,92.15
2022-08-28T22:35:49.389Z,91.92
2022-08-28T22:38:53.225Z,92.18
2022-08-28T22:41:56.085Z,92.18
2022-08-28T22:44:59.538Z,92.01
2022-08-28T22:48:02.189Z,93.62
2022-08-28T22:51:08.684Z,93.73
2022-08-28T22:54:11.308Z,93.92
2022-08-28T22:57:13.875Z,94.33
2022-08-28T23:00:21.603Z,96.43
2022-08-28T23:03:24.346Z,96.27
2022-08-28T23:06:28.491Z,95.51
2022-08-28T23:09:31.170Z,97.04
2022-08-28T23:12:36.669Z,96.39
2022-08-28T23:15:39.374Z,95.80
2022-08-28T23:19:06.419Z,97.04
2022-08-28T23:22:06.652Z,96.95
2022-08-28T23:25:13.830Z,97.18
2022-08-28T23:28:16.663Z,98.90
2022-08-28T23:31:19.573Z,98.94
2022-08-28T23:34:22.855Z,100.00
2022-08-28T23:37:26.908Z,99.11
2022-08-28T23:40:30.391Z,99.09
2022-08-28T23:43:33.496Z,99.70
2022-08-28T23:46:36.462Z,100.00
2022-08-28T23:49:42.798Z,99.18
2022-08-28T23:52:47.192Z,99.92
2022-08-28T23:55:49.963Z,99.49
2022-08-28T23:58:54.202Z,99.16
